Time;durP1;ratioP1;P1;durP2;ratioP2;P2;SDS_P1;SDS_P2;PMS_P1;PMS_P2;Temp;Humidity;BMP_temperature;BMP_pressure;BME280_temperature;BME280_humidity;BME280_pressure;Samples;Min_cycle;Max_cycle;Signal;HPM_P1;HPM_P2
2021/12/23 00:01:03;;;;;;;35.78;14.15;;;;;;;;;;6269607;28;20107;-82
2021/12/23 00:04:05;;;;;;;32.13;12.95;;;;;;;;;;6298621;28;20044;-83
2021/12/23 00:07:07;;;;;;;40.45;15.38;;;;;;;;;;6297724;28;20142;-83
2021/12/23 00:10:09;;;;;;;37.97;14.38;;;;;;;;;;6288423;28;20044;-83
2021/12/23 00:13:11;;;;;;;42.83;16.15;;;;;;;;;;6313920;28;20044;-84
2021/12/23 00:16:18;;;;;;;32.42;14.10;;;;;;;;;;6297428;28;20409;-82
2021/12/23 00:25:43;;;;;;;34.55;14.57;;;;;;;;;;6308662;28;20252;-84
2021/12/23 00:28:44;;;;;;;42.58;15.90;;;;;;;;;;6285497;28;20086;-82
2021/12/23 00:31:46;;;;;;;34.95;13.48;;;;;;;;;;6308497;28;20106;-82
2021/12/23 00:34:48;;;;;;;26.35;11.90;;;;;;;;;;6300282;28;20045;-84
2021/12/23 00:37:56;;;;;;;27.50;11.10;;;;;;;;;;6300499;28;20145;-84
2021/12/23 00:41:00;;;;;;;28.25;11.25;;;;;;;;;;6306645;28;20182;-82
2021/12/23 00:44:02;;;;;;;30.48;13.30;;;;;;;;;;6298857;28;20056;-84
2021/12/23 00:47:04;;;;;;;37.97;15.18;;;;;;;;;;6300099;28;20040;-85
2021/12/23 00:50:06;;;;;;;40.35;15.95;;;;;;;;;;6283088;28;20103;-84
2021/12/23 00:53:10;;;;;;;36.22;14.75;;;;;;;;;;6318226;28;20040;-83
2021/12/23 00:56:12;;;;;;;34.15;13.75;;;;;;;;;;6283003;28;20044;-83
2021/12/23 00:59:13;;;;;;;35.33;13.40;;;;;;;;;;6298585;28;20054;-84
2021/12/23 01:02:17;;;;;;;38.72;14.40;;;;;;;;;;6293175;28;20048;-84
2021/12/23 01:05:21;;;;;;;37.88;15.73;;;;;;;;;;6276302;28;20497;-83
2021/12/23 01:08:24;;;;;;;29.15;13.75;;;;;;;;;;6300680;28;20481;-82
2021/12/23 01:11:27;;;;;;;39.20;14.63;;;;;;;;;;6296172;28;20128;-82
2021/12/23 01:14:40;;;;;;;31.08;12.90;;;;;;;;;;6313678;28;20438;-81
2021/12/23 01:18:06;;;;;;;30.80;13.75;;;;;;;;;;6309462;28;20119;-81
2021/12/23 01:21:17;;;;;;;33.70;13.15;;;;;;;;;;6314884;28;20129;-83
2021/12/23 01:24:20;;;;;;;29.90;12.85;;;;;;;;;;6290422;28;20044;-84
2021/12/23 01:27:21;;;;;;;34.67;14.45;;;;;;;;;;6282041;28;20040;-82
2021/12/23 01:30:23;;;;;;;29.05;12.95;;;;;;;;;;6300177;28;20047;-83
2021/12/23 01:33:25;;;;;;;27.45;11.05;;;;;;;;;;6279038;28;20044;-85
2021/12/23 01:36:27;;;;;;;28.48;11.13;;;;;;;;;;6279473;28;20040;-83
2021/12/23 01:39:29;;;;;;;29.50;11.68;;;;;;;;;;6304175;28;20449;-84
2021/12/23 01:42:31;;;;;;;34.72;14.85;;;;;;;;;;6313396;28;20043;-82
2021/12/23 01:45:34;;;;;;;38.05;13.73;;;;;;;;;;6320327;28;20040;-82
2021/12/23 01:48:37;;;;;;;31.58;12.75;;;;;;;;;;6278912;28;20044;-84
2021/12/23 01:51:39;;;;;;;32.17;12.73;;;;;;;;;;6278638;28;20044;-84
2021/12/23 01:54:40;;;;;;;34.08;12.57;;;;;;;;;;6286364;28;20074;-84
2021/12/23 01:57:43;;;;;;;33.00;12.02;;;;;;;;;;6304327;28;20040;-82
2021/12/23 02:00:48;;;;;;;27.83;12.13;;;;;;;;;;6302189;28;20044;-82
2021/12/23 02:03:50;;;;;;;24.80;11.98;;;;;;;;;;6302045;28;20044;-83
2021/12/23 02:06:51;;;;;;;27.17;11.90;;;;;;;;;;6278583;28;20131;-84
2021/12/23 02:09:55;;;;;;;29.83;12.27;;;;;;;;;;6286493;28;20122;-83
2021/12/23 02:12:57;;;;;;;27.05;11.60;;;;;;;;;;6319597;28;20098;-83
2021/12/23 02:16:00;;;;;;;26.63;11.43;;;;;;;;;;6302695;28;20040;-84
2021/12/23 02:19:16;;;;;;;25.40;11.03;;;;;;;;;;6302435;28;20127;-84
2021/12/23 02:22:17;;;;;;;27.88;11.68;;;;;;;;;;6318343;28;20412;-84
2021/12/23 02:25:19;;;;;;;34.38;11.75;;;;;;;;;;6287084;28;20046;-84
2021/12/23 02:28:22;;;;;;;27.42;12.07;;;;;;;;;;6321131;28;20131;-84
2021/12/23 02:31:24;;;;;;;33.90;12.88;;;;;;;;;;6302966;28;20501;-84
2021/12/23 02:34:25;;;;;;;25.42;11.20;;;;;;;;;;6321154;28;20126;-83
2021/12/23 02:37:27;;;;;;;24.05;10.40;;;;;;;;;;6291851;28;20039;-85
2021/12/23 02:40:32;;;;;;;33.00;12.25;;;;;;;;;;6307389;28;20043;-84
2021/12/23 02:43:36;;;;;;;30.35;11.55;;;;;;;;;;6320633;28;20035;-82
2021/12/23 02:46:39;;;;;;;27.35;11.55;;;;;;;;;;6294526;28;20044;-84
2021/12/23 02:49:41;;;;;;;31.95;11.70;;;;;;;;;;6295861;28;20064;-84
2021/12/23 02:52:42;;;;;;;32.38;12.88;;;;;;;;;;6277109;28;20066;-85
2021/12/23 02:55:45;;;;;;;31.63;12.68;;;;;;;;;;6285352;28;20170;-84
2021/12/23 02:58:46;;;;;;;34.38;13.18;;;;;;;;;;6320012;28;20032;-85
2021/12/23 03:01:48;;;;;;;30.45;12.93;;;;;;;;;;6285227;28;20048;-84
2021/12/23 03:04:50;;;;;;;28.90;12.25;;;;;;;;;;6319169;28;20040;-84
2021/12/23 03:07:51;;;;;;;28.55;11.57;;;;;;;;;;6320371;28;20416;-84
2021/12/23 03:10:53;;;;;;;30.92;12.48;;;;;;;;;;6291138;28;20048;-85
2021/12/23 03:13:56;;;;;;;30.42;11.77;;;;;;;;;;6301350;28;20040;-84
2021/12/23 03:16:58;;;;;;;31.50;12.90;;;;;;;;;;6286339;28;20107;-84
2021/12/23 03:20:00;;;;;;;29.42;12.40;;;;;;;;;;6306868;28;20123;-86
2021/12/23 03:23:01;;;;;;;28.88;13.38;;;;;;;;;;6294533;28;20143;-85
2021/12/23 03:26:04;;;;;;;36.63;15.30;;;;;;;;;;6279778;28;20048;-83
2021/12/23 03:29:08;;;;;;;31.20;13.98;;;;;;;;;;6297363;28;20200;-84
2021/12/23 03:32:11;;;;;;;30.45;13.23;;;;;;;;;;6285429;28;20044;-84
2021/12/23 03:35:12;;;;;;;33.30;13.40;;;;;;;;;;6294043;28;20044;-85
2021/12/23 03:38:16;;;;;;;36.78;14.20;;;;;;;;;;6276338;28;20050;-83
2021/12/23 03:41:17;;;;;;;;;;;;;;;;;;6282520;28;20041;-83
2021/12/23 03:44:19;;;;;;;33.28;11.95;;;;;;;;;;6317200;28;20381;-81
2021/12/23 03:47:20;;;;;;;33.72;13.77;;;;;;;;;;6300245;28;20036;-82
2021/12/23 03:50:24;;;;;;;35.15;13.82;;;;;;;;;;6297364;28;20044;-83
2021/12/23 03:53:26;;;;;;;31.75;14.30;;;;;;;;;;6289752;28;20055;-83
2021/12/23 03:56:28;;;;;;;35.30;13.52;;;;;;;;;;6300936;28;20170;-83
2021/12/23 03:59:29;;;;;;;31.83;12.75;;;;;;;;;;6280777;28;20187;-83
2021/12/23 04:02:31;;;;;;;33.35;14.63;;;;;;;;;;6318198;28;20044;-83
2021/12/23 04:05:33;;;;;;;33.78;14.48;;;;;;;;;;6318359;28;20154;-83
2021/12/23 04:08:35;;;;;;;34.08;13.95;;;;;;;;;;6298979;28;20069;-84
2021/12/23 04:11:36;;;;;;;35.78;15.75;;;;;;;;;;6300933;28;20055;-84
2021/12/23 04:14:38;;;;;;;33.67;14.23;;;;;;;;;;6280571;28;20036;-83
2021/12/23 04:17:40;;;;;;;32.72;14.25;;;;;;;;;;6302774;28;20037;-85
2021/12/23 04:20:54;;;;;;;34.47;14.32;;;;;;;;;;6259392;28;20597;-82
2021/12/23 04:23:55;;;;;;;36.30;14.63;;;;;;;;;;6316323;28;20119;-83
2021/12/23 04:26:57;;;;;;;43.13;16.65;;;;;;;;;;6301668;28;20051;-83
2021/12/23 04:29:59;;;;;;;43.03;16.75;;;;;;;;;;6295857;28;20041;-85
2021/12/23 04:33:00;;;;;;;37.05;15.30;;;;;;;;;;6287419;28;20052;-84
2021/12/23 04:36:02;;;;;;;35.38;14.48;;;;;;;;;;6303819;28;20044;-86
2021/12/23 04:39:05;;;;;;;37.92;14.50;;;;;;;;;;6319202;28;20568;-83
2021/12/23 04:42:07;;;;;;;34.08;14.35;;;;;;;;;;6289335;28;20627;-85
2021/12/23 04:45:09;;;;;;;37.45;13.63;;;;;;;;;;6265535;28;20132;-87
2021/12/23 04:48:11;;;;;;;40.50;15.50;;;;;;;;;;6290877;28;20046;-84
2021/12/23 04:51:13;;;;;;;34.60;15.20;;;;;;;;;;6319037;28;20048;-83
2021/12/23 04:54:14;;;;;;;36.80;14.43;;;;;;;;;;6293619;28;20045;-83
2021/12/23 04:57:16;;;;;;;36.22;15.15;;;;;;;;;;6308067;28;20143;-84
2021/12/23 05:00:20;;;;;;;34.13;14.68;;;;;;;;;;6290615;28;20070;-85
2021/12/23 05:03:24;;;;;;;46.22;15.85;;;;;;;;;;6283154;28;20493;-84
2021/12/23 05:06:26;;;;;;;;;;;;;;;;;;6296934;28;20043;-84
2021/12/23 05:09:27;;;;;;;38.63;14.73;;;;;;;;;;6291746;28;19927;-86
2021/12/23 05:12:30;;;;;;;44.23;18.23;;;;;;;;;;6280118;28;20097;-84
2021/12/23 05:15:32;;;;;;;42.00;16.77;;;;;;;;;;6285661;28;20044;-83
2021/12/23 05:18:33;;;;;;;43.20;17.05;;;;;;;;;;6296309;28;20040;-84
2021/12/23 05:21:35;;;;;;;38.65;16.88;;;;;;;;;;6304313;28;20047;-84
2021/12/23 05:24:37;;;;;;;38.83;16.48;;;;;;;;;;6298318;28;20804;-82
2021/12/23 05:27:39;;;;;;;40.75;16.48;;;;;;;;;;6289791;28;20124;-84
2021/12/23 05:30:40;;;;;;;35.47;15.48;;;;;;;;;;6292996;28;20177;-85
2021/12/23 05:33:42;;;;;;;47.50;17.98;;;;;;;;;;6294877;28;20041;-85
2021/12/23 05:36:44;;;;;;;42.30;17.20;;;;;;;;;;6321419;28;20046;-84
2021/12/23 05:39:45;;;;;;;46.15;18.65;;;;;;;;;;6285457;28;20036;-83
2021/12/23 05:42:47;;;;;;;41.15;16.75;;;;;;;;;;6320299;28;20138;-80
2021/12/23 05:45:49;;;;;;;53.40;19.55;;;;;;;;;;6317185;28;20104;-83
2021/12/23 05:48:51;;;;;;;50.25;20.42;;;;;;;;;;6279085;28;20045;-84
2021/12/23 05:51:52;;;;;;;45.38;18.58;;;;;;;;;;6277408;28;20041;-82
2021/12/23 05:54:56;;;;;;;46.58;18.60;;;;;;;;;;6266409;28;20059;-84
2021/12/23 05:57:57;;;;;;;43.35;17.92;;;;;;;;;;6315370;28;20135;-84
2021/12/23 06:00:59;;;;;;;39.45;17.23;;;;;;;;;;6293363;28;20054;-84
2021/12/23 06:04:01;;;;;;;44.70;18.63;;;;;;;;;;6281898;28;20078;-85
2021/12/23 06:07:03;;;;;;;47.33;19.10;;;;;;;;;;6275088;28;20044;-83
2021/12/23 06:10:05;;;;;;;48.67;20.85;;;;;;;;;;6309421;28;20051;-83
2021/12/23 06:13:07;;;;;;;56.20;20.85;;;;;;;;;;6299990;28;20417;-82
2021/12/23 06:16:10;;;;;;;65.00;25.42;;;;;;;;;;6299875;28;20044;-82
2021/12/23 06:19:11;;;;;;;55.67;23.20;;;;;;;;;;6296216;28;20074;-83
2021/12/23 06:22:14;;;;;;;48.53;20.95;;;;;;;;;;6295777;28;20246;-82
2021/12/23 06:25:16;;;;;;;45.03;18.95;;;;;;;;;;6279430;28;20150;-82
2021/12/23 06:28:17;;;;;;;41.00;17.77;;;;;;;;;;6283365;28;20044;-82
2021/12/23 06:31:19;;;;;;;36.95;15.65;;;;;;;;;;6299853;28;20070;-83
2021/12/23 06:34:21;;;;;;;36.38;15.93;;;;;;;;;;6264580;28;20044;-83
2021/12/23 06:37:23;;;;;;;40.83;16.65;;;;;;;;;;6296060;28;20100;-83
2021/12/23 06:40:24;;;;;;;37.78;15.98;;;;;;;;;;6315405;28;20050;-84
2021/12/23 06:43:26;;;;;;;50.58;19.23;;;;;;;;;;6310308;28;20446;-85
2021/12/23 06:46:27;;;;;;;45.60;19.55;;;;;;;;;;6315000;28;20036;-84
2021/12/23 06:49:31;;;;;;;113.35;33.65;;;;;;;;;;6293680;28;20081;-84
2021/12/23 06:52:33;;;;;;;60.45;21.85;;;;;;;;;;6303775;28;20047;-82
2021/12/23 06:55:35;;;;;;;45.42;19.73;;;;;;;;;;6303531;28;20059;-83
2021/12/23 06:58:38;;;;;;;46.05;20.08;;;;;;;;;;6305682;28;20130;-84
2021/12/23 07:01:42;;;;;;;48.42;21.23;;;;;;;;;;6304294;28;20036;-85
2021/12/23 07:04:45;;;;;;;54.65;23.38;;;;;;;;;;6305300;28;20044;-85
2021/12/23 07:08:03;;;;;;;56.23;23.77;;;;;;;;;;6302040;28;20044;-84
2021/12/23 07:11:05;;;;;;;48.72;21.27;;;;;;;;;;6286799;28;20043;-84
2021/12/23 07:14:07;;;;;;;59.55;24.73;;;;;;;;;;6302179;28;20048;-84
2021/12/23 07:17:08;;;;;;;58.78;23.90;;;;;;;;;;6299485;28;20048;-85
2021/12/23 07:20:11;;;;;;;58.60;22.77;;;;;;;;;;6304269;28;20040;-87
2021/12/23 07:23:13;;;;;;;52.58;21.77;;;;;;;;;;6323314;28;20071;-85
2021/12/23 07:26:17;;;;;;;59.50;21.98;;;;;;;;;;6294154;28;20048;-82
2021/12/23 07:29:23;;;;;;;67.80;26.13;;;;;;;;;;6276449;28;20062;-83
2021/12/23 07:32:25;;;;;;;62.67;23.98;;;;;;;;;;6298179;28;20074;-85
2021/12/23 07:35:27;;;;;;;55.17;23.75;;;;;;;;;;6278609;28;20504;-82
2021/12/23 07:38:29;;;;;;;57.65;22.60;;;;;;;;;;6297883;28;20036;-81
2021/12/23 07:41:30;;;;;;;65.15;22.00;;;;;;;;;;6304331;28;20509;-83
2021/12/23 07:44:33;;;;;;;61.00;22.95;;;;;;;;;;6284915;28;20036;-83
2021/12/23 07:47:36;;;;;;;53.33;21.50;;;;;;;;;;6320165;28;20044;-83
2021/12/23 07:50:40;;;;;;;49.03;21.98;;;;;;;;;;6303817;28;20036;-81
2021/12/23 07:53:42;;;;;;;58.10;22.63;;;;;;;;;;6302282;28;20099;-80
2021/12/23 07:56:44;;;;;;;68.22;28.00;;;;;;;;;;6320657;28;20143;-82
2021/12/23 07:59:45;;;;;;;58.50;21.85;;;;;;;;;;6285691;28;20042;-81
2021/12/23 08:02:47;;;;;;;55.58;23.30;;;;;;;;;;6323066;28;20039;-81
2021/12/23 08:05:52;;;;;;;53.00;20.30;;;;;;;;;;6306426;28;20040;-82
2021/12/23 08:08:54;;;;;;;54.25;21.30;;;;;;;;;;6290814;28;20052;-80
2021/12/23 08:11:55;;;;;;;55.25;21.35;;;;;;;;;;6299501;28;20056;-83
2021/12/23 08:14:57;;;;;;;64.38;23.83;;;;;;;;;;6284826;28;20037;-81
2021/12/23 08:18:14;;;;;;;54.42;21.90;;;;;;;;;;6301896;28;20398;-82
2021/12/23 08:21:15;;;;;;;55.67;21.15;;;;;;;;;;6293241;28;20040;-81
2021/12/23 08:24:17;;;;;;;49.60;21.60;;;;;;;;;;6285608;28;20188;-81
2021/12/23 08:27:21;;;;;;;60.60;24.13;;;;;;;;;;6276933;28;20093;-81
2021/12/23 08:30:23;;;;;;;65.30;26.10;;;;;;;;;;6300692;28;20072;-82
2021/12/23 08:33:24;;;;;;;56.25;23.75;;;;;;;;;;6286135;28;20060;-81
2021/12/23 08:36:26;;;;;;;49.58;21.25;;;;;;;;;;6296647;28;20685;-81
2021/12/23 08:39:28;;;;;;;60.55;22.27;;;;;;;;;;6295703;28;20037;-81
2021/12/23 08:42:30;;;;;;;56.60;23.27;;;;;;;;;;6294556;28;20102;-82
2021/12/23 08:45:33;;;;;;;46.60;20.83;;;;;;;;;;6306608;28;20047;-82
2021/12/23 08:48:35;;;;;;;53.47;22.58;;;;;;;;;;6321429;28;20059;-81
2021/12/23 08:51:37;;;;;;;52.30;21.90;;;;;;;;;;6303464;28;20652;-82
2021/12/23 08:54:41;;;;;;;53.67;20.50;;;;;;;;;;6305002;28;20040;-81
2021/12/23 08:57:43;;;;;;;52.58;20.77;;;;;;;;;;6304439;28;20044;-83
2021/12/23 09:00:45;;;;;;;53.15;21.00;;;;;;;;;;6318104;28;20119;-82
2021/12/23 09:03:46;;;;;;;50.75;21.45;;;;;;;;;;6303080;28;20060;-80
2021/12/23 09:06:48;;;;;;;63.72;24.88;;;;;;;;;;6302913;28;20295;-82
2021/12/23 09:09:51;;;;;;;58.53;23.67;;;;;;;;;;6299116;28;20040;-82
2021/12/23 09:12:53;;;;;;;66.63;26.00;;;;;;;;;;6233872;28;20174;-82
2021/12/23 09:15:55;;;;;;;63.70;22.50;;;;;;;;;;6299296;28;21016;-81
2021/12/23 09:18:57;;;;;;;62.83;24.55;;;;;;;;;;6302459;28;20052;-82
2021/12/23 09:21:58;;;;;;;58.20;22.88;;;;;;;;;;6320240;28;20131;-82
2021/12/23 09:25:07;;;;;;;60.63;24.17;;;;;;;;;;6315768;28;20048;-83
2021/12/23 09:34:36;;;;;;;59.95;21.60;;;;;;;;;;6290882;28;20190;-81
2021/12/23 09:37:38;;;;;;;60.15;26.35;;;;;;;;;;6311922;28;20046;-83
2021/12/23 09:40:40;;;;;;;56.20;23.48;;;;;;;;;;6297223;28;20038;-81
2021/12/23 09:43:42;;;;;;;55.40;22.83;;;;;;;;;;6301831;28;20039;-82
2021/12/23 09:46:44;;;;;;;52.53;19.98;;;;;;;;;;6297612;28;20040;-83
2021/12/23 09:49:46;;;;;;;53.25;21.25;;;;;;;;;;6251619;28;20089;-84
2021/12/23 09:52:51;;;;;;;53.20;21.17;;;;;;;;;;6304730;28;21584;-81
2021/12/23 09:55:53;;;;;;;58.33;21.88;;;;;;;;;;6298253;28;20048;-82
2021/12/23 09:58:58;;;;;;;54.95;21.92;;;;;;;;;;6320262;28;20036;-80
2021/12/23 10:02:01;;;;;;;58.78;23.25;;;;;;;;;;6295305;28;20063;-80
2021/12/23 10:05:03;;;;;;;54.10;22.08;;;;;;;;;;6304236;28;20121;-80
2021/12/23 10:08:06;;;;;;;55.10;21.05;;;;;;;;;;6322272;28;20123;-80
2021/12/23 10:31:09;;;;;;;52.30;21.05;;;;;;;;;;6318253;28;20174;-83
2021/12/23 10:37:33;;;;;;;52.85;20.08;;;;;;;;;;6322473;28;20047;-82
2021/12/23 10:40:36;;;;;;;55.38;20.88;;;;;;;;;;6313131;28;20095;-81
2021/12/23 10:43:46;;;;;;;51.58;21.27;;;;;;;;;;6280524;28;20050;-81
2021/12/23 10:46:47;;;;;;;57.25;21.05;;;;;;;;;;6302287;28;20040;-83
2021/12/23 10:54:17;;;;;;;50.53;20.98;;;;;;;;;;6300059;28;20108;-81
2021/12/23 11:01:02;;;;;;;44.75;19.33;;;;;;;;;;6299737;28;20087;-81
2021/12/23 11:04:08;;;;;;;49.72;20.75;;;;;;;;;;6266876;28;20403;-82
2021/12/23 11:07:21;;;;;;;53.55;21.63;;;;;;;;;;6285844;28;20144;-82
2021/12/23 11:37:49;;;;;;;45.83;20.30;;;;;;;;;;6306989;28;20079;-82
2021/12/23 11:40:54;;;;;;;52.80;21.55;;;;;;;;;;6300088;28;20042;-82
2021/12/23 11:43:59;;;;;;;46.85;19.65;;;;;;;;;;6281772;28;20043;-83
2021/12/23 11:47:08;;;;;;;47.28;19.33;;;;;;;;;;6276282;28;20052;-81
2021/12/23 11:50:18;;;;;;;49.00;20.13;;;;;;;;;;6278234;28;20044;-82
2021/12/23 11:53:22;;;;;;;68.85;26.83;;;;;;;;;;6279247;28;20044;-81
2021/12/23 11:56:25;;;;;;;49.17;19.30;;;;;;;;;;6312629;28;20119;-81
2021/12/23 11:59:27;;;;;;;46.22;19.75;;;;;;;;;;6295878;28;20178;-82
2021/12/23 12:02:32;;;;;;;44.20;19.05;;;;;;;;;;6313575;28;20534;-82
2021/12/23 12:05:35;;;;;;;46.72;19.05;;;;;;;;;;6311755;28;20439;-81
2021/12/23 12:08:37;;;;;;;48.35;20.27;;;;;;;;;;6296019;28;20055;-84
2021/12/23 12:11:40;;;;;;;44.22;18.90;;;;;;;;;;6296290;28;20408;-82
2021/12/23 12:14:45;;;;;;;50.47;23.63;;;;;;;;;;6299142;28;20101;-81
2021/12/23 12:17:49;;;;;;;55.42;24.48;;;;;;;;;;6289930;28;20790;-81
2021/12/23 12:20:56;;;;;;;59.97;29.13;;;;;;;;;;6299693;28;20444;-81
2021/12/23 12:24:17;;;;;;;46.40;21.08;;;;;;;;;;6294511;28;20055;-81
2021/12/23 12:27:25;;;;;;;61.10;26.85;;;;;;;;;;6257809;28;20044;-82
2021/12/23 12:30:34;;;;;;;46.42;20.15;;;;;;;;;;6295680;28;20079;-82
2021/12/23 12:33:45;;;;;;;50.47;24.55;;;;;;;;;;6292207;28;20048;-82
2021/12/23 12:36:49;;;;;;;47.58;20.80;;;;;;;;;;6291513;28;20104;-81
2021/12/23 12:39:51;;;;;;;46.83;19.67;;;;;;;;;;6291524;28;20054;-81
2021/12/23 12:42:52;;;;;;;48.90;21.63;;;;;;;;;;6278632;28;20111;-81
2021/12/23 12:45:54;;;;;;;50.78;20.83;;;;;;;;;;6307598;28;20523;-81
2021/12/23 12:48:59;;;;;;;45.45;19.08;;;;;;;;;;6271117;28;20188;-81
2021/12/23 12:52:32;;;;;;;48.00;18.60;;;;;;;;;;6290106;28;20076;-81
2021/12/23 12:55:35;;;;;;;44.88;18.58;;;;;;;;;;6286207;28;20069;-81
2021/12/23 12:58:39;;;;;;;45.78;20.88;;;;;;;;;;6315386;28;20109;-82
2021/12/23 13:01:47;;;;;;;45.92;19.02;;;;;;;;;;6316219;28;20047;-81
2021/12/23 13:04:52;;;;;;;43.65;17.73;;;;;;;;;;6275218;28;20041;-82
2021/12/23 13:08:25;;;;;;;46.05;17.95;;;;;;;;;;6304369;28;20044;-81
2021/12/23 13:11:59;;;;;;;42.58;17.48;;;;;;;;;;6280871;28;20048;-81
2021/12/23 13:15:30;;;;;;;39.40;16.50;;;;;;;;;;6294873;28;20037;-81
2021/12/23 13:18:42;;;;;;;37.80;17.40;;;;;;;;;;6290331;28;20044;-81
2021/12/23 13:21:46;;;;;;;65.85;25.60;;;;;;;;;;6284389;28;20451;-81
2021/12/23 13:24:56;;;;;;;46.70;20.92;;;;;;;;;;6258590;28;20469;-81
2021/12/23 13:28:07;;;;;;;48.45;20.55;;;;;;;;;;6245418;28;20412;-81
2021/12/23 13:31:20;;;;;;;51.28;21.25;;;;;;;;;;6279103;28;20044;-81
2021/12/23 13:34:26;;;;;;;51.20;21.15;;;;;;;;;;6282568;28;20090;-80
2021/12/23 13:37:28;;;;;;;45.50;18.52;;;;;;;;;;6300513;28;20063;-82
2021/12/23 13:40:35;;;;;;;43.17;17.88;;;;;;;;;;6282211;28;20036;-84
2021/12/23 13:43:37;;;;;;;50.83;20.13;;;;;;;;;;6313795;28;20082;-83
2021/12/23 13:46:40;;;;;;;37.75;16.58;;;;;;;;;;6332811;28;20467;-82
2021/12/23 13:49:49;;;;;;;59.38;22.52;;;;;;;;;;6304513;28;20070;-82
2021/12/23 13:52:52;;;;;;;41.55;17.73;;;;;;;;;;6285231;28;20047;-83
2021/12/23 13:55:54;;;;;;;50.45;20.80;;;;;;;;;;6303404;28;20367;-82
2021/12/23 13:59:16;;;;;;;39.15;16.45;;;;;;;;;;6302877;28;20055;-82
2021/12/23 14:02:22;;;;;;;40.55;17.77;;;;;;;;;;6298463;28;20052;-81
2021/12/23 14:05:24;;;;;;;41.42;17.38;;;;;;;;;;6322362;28;20676;-81
2021/12/23 14:08:30;;;;;;;47.08;19.80;;;;;;;;;;6277845;28;20050;-81
2021/12/23 14:11:31;;;;;;;49.63;20.92;;;;;;;;;;6286165;28;20417;-81
2021/12/23 14:14:33;;;;;;;75.90;29.88;;;;;;;;;;6285102;28;20075;-81
2021/12/23 14:24:44;;;;;;;56.35;22.20;;;;;;;;;;6304837;28;20040;-81
2021/12/23 14:27:46;;;;;;;48.38;20.67;;;;;;;;;;6305988;28;20568;-81
2021/12/23 14:30:50;;;;;;;82.60;34.10;;;;;;;;;;6295310;28;21538;-80
2021/12/23 14:33:53;;;;;;;68.28;27.88;;;;;;;;;;6289589;28;20089;-81
2021/12/23 14:37:14;;;;;;;46.55;20.50;;;;;;;;;;6305506;28;20045;-80
2021/12/23 14:40:22;;;;;;;52.25;19.77;;;;;;;;;;6321212;28;20051;-81
2021/12/23 14:43:24;;;;;;;54.42;22.70;;;;;;;;;;6321145;28;20051;-82
2021/12/23 14:46:37;;;;;;;53.35;23.08;;;;;;;;;;6290199;28;20041;-83
2021/12/23 14:50:36;;;;;;;;;;;;;;;;;;6304886;28;20588;-82
2021/12/23 14:53:18;;;;;;;46.38;17.95;;;;;;;;;;6282587;28;19924;-81
2021/12/23 14:56:20;;;;;;;40.35;17.85;;;;;;;;;;6314758;28;20064;-82
2021/12/23 14:59:21;;;;;;;57.53;26.25;;;;;;;;;;6318076;28;20047;-81
2021/12/23 15:02:27;;;;;;;45.67;19.58;;;;;;;;;;6311430;28;20412;-81
2021/12/23 15:05:31;;;;;;;52.03;19.80;;;;;;;;;;6318852;28;20060;-81
2021/12/23 15:08:33;;;;;;;;;;;;;;;;;;6310990;28;20123;-82
2021/12/23 15:11:34;;;;;;;53.45;20.67;;;;;;;;;;6309503;28;19967;-81
2021/12/23 15:14:41;;;;;;;51.80;21.35;;;;;;;;;;6298533;28;20047;-82
2021/12/23 15:17:56;;;;;;;49.08;21.00;;;;;;;;;;6294676;28;20098;-82
2021/12/23 15:20:58;;;;;;;55.90;22.55;;;;;;;;;;6292587;28;20540;-83
2021/12/23 15:24:13;;;;;;;57.03;23.10;;;;;;;;;;6295490;28;20175;-83
2021/12/23 15:27:23;;;;;;;56.10;23.13;;;;;;;;;;6316643;28;20044;-83
2021/12/23 15:30:29;;;;;;;65.05;24.70;;;;;;;;;;6294808;28;20050;-82
2021/12/23 15:33:31;;;;;;;60.35;24.27;;;;;;;;;;6293117;28;20039;-82
2021/12/23 15:36:33;;;;;;;56.83;24.52;;;;;;;;;;6293852;28;20130;-81
2021/12/23 15:39:36;;;;;;;56.83;23.57;;;;;;;;;;6291867;28;20043;-81
2021/12/23 15:42:38;;;;;;;57.17;23.55;;;;;;;;;;6299473;28;20043;-82
2021/12/23 15:45:39;;;;;;;59.90;23.75;;;;;;;;;;6292367;28;20052;-81
2021/12/23 15:48:42;;;;;;;55.08;23.02;;;;;;;;;;6297469;28;20489;-81
2021/12/23 15:51:44;;;;;;;61.20;22.85;;;;;;;;;;6297995;28;20123;-80
2021/12/23 15:54:46;;;;;;;62.53;25.60;;;;;;;;;;6310921;28;20043;-81
2021/12/23 15:57:48;;;;;;;61.00;24.20;;;;;;;;;;6309931;28;20044;-80
2021/12/23 16:00:51;;;;;;;64.18;27.25;;;;;;;;;;6292558;28;20127;-80
2021/12/23 16:03:54;;;;;;;55.95;22.95;;;;;;;;;;6273922;28;20040;-80
2021/12/23 16:07:17;;;;;;;60.38;23.92;;;;;;;;;;6318208;28;20048;-81
2021/12/23 16:10:24;;;;;;;70.07;25.48;;;;;;;;;;6301162;28;20036;-81
2021/12/23 16:13:26;;;;;;;65.32;25.17;;;;;;;;;;6300214;28;20043;-79
2021/12/23 16:16:28;;;;;;;60.30;24.92;;;;;;;;;;6297110;28;20040;-81
2021/12/23 16:19:29;;;;;;;67.78;26.23;;;;;;;;;;6300147;28;20048;-81
2021/12/23 16:22:32;;;;;;;59.20;25.45;;;;;;;;;;6298171;28;20104;-82
2021/12/23 16:25:34;;;;;;;68.65;27.27;;;;;;;;;;6313032;28;20048;-81
2021/12/23 16:28:37;;;;;;;76.20;28.38;;;;;;;;;;6292372;28;20068;-81
2021/12/23 16:31:38;;;;;;;69.45;27.10;;;;;;;;;;6282797;28;20043;-81
2021/12/23 16:34:40;;;;;;;68.45;25.73;;;;;;;;;;6300059;28;20040;-81
2021/12/23 16:37:43;;;;;;;64.05;24.65;;;;;;;;;;6299584;28;20050;-81
2021/12/23 16:40:50;;;;;;;64.03;24.73;;;;;;;;;;6295423;28;20054;-81
2021/12/23 16:43:52;;;;;;;65.93;25.58;;;;;;;;;;6312556;28;20076;-80
2021/12/23 16:46:54;;;;;;;64.05;23.63;;;;;;;;;;6287264;28;20051;-81
2021/12/23 16:49:55;;;;;;;64.88;25.98;;;;;;;;;;6292796;28;20117;-81
2021/12/23 16:52:59;;;;;;;60.97;25.50;;;;;;;;;;6291918;28;20075;-82
2021/12/23 16:56:13;;;;;;;;;;;;;;;;;;6319660;28;20040;-81
2021/12/23 16:59:15;;;;;;;59.83;24.45;;;;;;;;;;6299245;28;19951;-81
2021/12/23 17:02:17;;;;;;;70.22;27.77;;;;;;;;;;6293024;28;20058;-81
2021/12/23 17:05:20;;;;;;;75.95;30.02;;;;;;;;;;6322238;28;20114;-81
2021/12/23 17:08:23;;;;;;;;;;;;;;;;;;6314998;28;20040;-81
2021/12/23 17:11:25;;;;;;;65.25;26.88;;;;;;;;;;6287032;28;19987;-81
2021/12/23 17:14:26;;;;;;;78.30;28.58;;;;;;;;;;6281386;28;20050;-81
2021/12/23 17:17:30;;;;;;;82.78;31.25;;;;;;;;;;6317636;28;20044;-81
2021/12/23 17:23:37;;;;;;;77.90;28.83;;;;;;;;;;6295229;28;20040;-81
2021/12/23 17:26:39;;;;;;;72.88;27.60;;;;;;;;;;6265581;28;20047;-81
2021/12/23 17:29:42;;;;;;;70.43;26.30;;;;;;;;;;6296616;28;20054;-81
2021/12/23 17:32:45;;;;;;;68.77;27.10;;;;;;;;;;6314641;28;20162;-81
2021/12/23 17:35:51;;;;;;;73.65;31.52;;;;;;;;;;6315576;28;20442;-81
2021/12/23 17:38:53;;;;;;;69.95;29.48;;;;;;;;;;6315583;28;20108;-82
2021/12/23 17:41:54;;;;;;;80.97;31.17;;;;;;;;;;6301438;28;20040;-82
2021/12/23 17:44:56;;;;;;;83.43;34.65;;;;;;;;;;6317225;28;20135;-81
2021/12/23 17:47:58;;;;;;;88.13;35.53;;;;;;;;;;6307148;28;20098;-81
2021/12/23 17:51:07;;;;;;;84.63;35.75;;;;;;;;;;6280288;28;20102;-81
2021/12/23 17:54:08;;;;;;;86.38;36.35;;;;;;;;;;6286825;28;20116;-81
2021/12/23 17:57:11;;;;;;;87.32;34.35;;;;;;;;;;6272603;28;20082;-82
2021/12/23 18:00:13;;;;;;;74.75;31.40;;;;;;;;;;6308655;28;20099;-82
2021/12/23 18:03:15;;;;;;;72.45;31.20;;;;;;;;;;6285899;28;20043;-81
2021/12/23 18:06:17;;;;;;;86.50;32.33;;;;;;;;;;6317703;28;20044;-82
2021/12/23 18:09:19;;;;;;;82.78;32.15;;;;;;;;;;6301837;28;20043;-81
2021/12/23 18:12:21;;;;;;;100.53;39.65;;;;;;;;;;6302029;28;20047;-82
2021/12/23 18:15:22;;;;;;;96.65;36.42;;;;;;;;;;6293211;28;20044;-81
2021/12/23 18:18:24;;;;;;;76.38;33.25;;;;;;;;;;6276304;28;20047;-83
2021/12/23 18:21:27;;;;;;;74.38;30.23;;;;;;;;;;6318224;28;20044;-81
2021/12/23 18:24:28;;;;;;;87.55;32.40;;;;;;;;;;6299259;28;20040;-81
2021/12/23 18:27:30;;;;;;;70.80;27.48;;;;;;;;;;6313919;28;20670;-80
2021/12/23 18:30:32;;;;;;;75.80;28.75;;;;;;;;;;6301379;28;20044;-80
2021/12/23 18:33:33;;;;;;;66.10;28.05;;;;;;;;;;6283970;28;20375;-80
2021/12/23 18:36:40;;;;;;;74.90;29.60;;;;;;;;;;6277008;28;20497;-81
2021/12/23 18:39:41;;;;;;;78.05;30.08;;;;;;;;;;6308770;28;20195;-81
2021/12/23 18:42:51;;;;;;;84.65;31.83;;;;;;;;;;6293383;28;20055;-80
2021/12/23 18:45:55;;;;;;;73.97;32.22;;;;;;;;;;6265432;28;20050;-81
2021/12/23 18:48:58;;;;;;;97.35;34.85;;;;;;;;;;6311334;28;20052;-80
2021/12/23 18:52:04;;;;;;;71.88;29.85;;;;;;;;;;6315958;28;20105;-80
2021/12/23 18:55:06;;;;;;;70.10;27.23;;;;;;;;;;6284583;28;20044;-81
2021/12/23 18:58:08;;;;;;;67.22;27.45;;;;;;;;;;6310401;28;20127;-81
2021/12/23 19:01:14;;;;;;;79.40;31.65;;;;;;;;;;6312236;28;20379;-79
2021/12/23 19:07:37;;;;;;;79.20;32.53;;;;;;;;;;6294751;28;20420;-81
2021/12/23 19:10:38;;;;;;;69.75;26.50;;;;;;;;;;6278009;28;20123;-82
2021/12/23 19:13:40;;;;;;;61.95;24.92;;;;;;;;;;6289748;28;20048;-83
2021/12/23 19:16:42;;;;;;;69.25;32.35;;;;;;;;;;6280194;28;20412;-80